Terminal Aerodrome Forecast
Issued by NWS

Current Version | Previous Version | Text Only | Print | Product List | Glossary On
Versions: 1 2 3 4 5 6 7 8 9 10 11 12 13 14 15
000
FTUS43 KAPX 311737
TAFMBL
TAF
KMBL 311737Z 3118/0118 01012G24KT 5SM -SHSN BKN025
     FM311900 36012G24KT P6SM BKN035
     FM010300 36013G20KT P6SM SCT035
     FM011300 36008G18KT P6SM SKC
      AMD LTD TO CLD VIS AND WIND=

USA.gov is the U.S. government's official web portal to all federal, state and local government web resources and services.